createdAt,value
2023-03-26T00:00:38.912Z,17
2023-03-26T00:01:45.729Z,11
2023-03-26T00:02:52.581Z,9
2023-03-26T00:04:00.083Z,8
2023-03-26T00:05:06.927Z,7
2023-03-26T00:06:13.713Z,7
2023-03-26T00:07:20.552Z,8
2023-03-26T00:08:27.451Z,8
2023-03-26T00:09:34.194Z,8
2023-03-26T00:10:41.008Z,12
2023-03-26T00:11:47.817Z,10
2023-03-26T00:12:54.775Z,11
2023-03-26T00:14:01.586Z,13
2023-03-26T00:15:08.389Z,17
2023-03-26T00:16:15.182Z,14
2023-03-26T00:17:22.014Z,12
2023-03-26T00:18:28.969Z,14
2023-03-26T00:19:35.827Z,12
2023-03-26T00:20:42.607Z,12
2023-03-26T00:21:49.429Z,9
2023-03-26T00:22:56.197Z,9
2023-03-26T00:24:05.952Z,6
2023-03-26T00:25:15.464Z,7
2023-03-26T00:26:22.234Z,8
2023-03-26T00:27:29.186Z,6
2023-03-26T00:28:35.976Z,6
2023-03-26T00:29:42.827Z,4
2023-03-26T00:30:49.615Z,5
2023-03-26T00:32:01.529Z,5
2023-03-26T00:33:08.588Z,6
2023-03-26T00:34:15.402Z,6
2023-03-26T00:35:22.209Z,4
2023-03-26T00:36:29.094Z,6
2023-03-26T00:37:35.921Z,6
2023-03-26T00:38:42.752Z,4
2023-03-26T00:39:49.559Z,6
2023-03-26T00:40:56.455Z,5
2023-03-26T00:42:03.358Z,5
2023-03-26T00:43:10.101Z,6
2023-03-26T00:44:16.874Z,6
2023-03-26T00:45:23.663Z,5
2023-03-26T00:46:30.603Z,6
2023-03-26T00:47:37.398Z,5
2023-03-26T00:48:45.682Z,5
2023-03-26T00:49:51.008Z,6
2023-03-26T00:50:57.798Z,5
2023-03-26T00:52:04.595Z,5
2023-03-26T00:53:11.438Z,6
2023-03-26T00:54:18.235Z,5
2023-03-26T00:55:25.032Z,6
2023-03-26T00:56:31.930Z,6
2023-03-26T00:57:38.735Z,6
2023-03-26T00:58:45.611Z,5
2023-03-26T00:59:52.604Z,5
2023-03-26T01:00:59.620Z,4
2023-03-26T01:02:06.616Z,5
2023-03-26T01:03:19.294Z,7
2023-03-26T01:04:20.351Z,7
2023-03-26T01:05:30.053Z,7
2023-03-26T01:06:42.567Z,6
2023-03-26T01:07:49.371Z,7
2023-03-26T01:08:56.232Z,5
2023-03-26T01:10:08.151Z,5
2023-03-26T01:11:15.080Z,5
2023-03-26T01:12:24.831Z,6
2023-03-26T01:13:31.634Z,5
2023-03-26T01:14:41.339Z,7
2023-03-26T01:15:48.217Z,6
2023-03-26T01:16:55.127Z,6
2023-03-26T01:18:01.847Z,5
2023-03-26T01:19:08.934Z,9
2023-03-26T01:20:20.798Z,5
2023-03-26T01:21:27.758Z,6
2023-03-26T01:22:34.587Z,6
2023-03-26T01:23:41.415Z,6
2023-03-26T01:24:48.212Z,5
2023-03-26T01:25:57.771Z,6
2023-03-26T01:27:04.598Z,6
2023-03-26T01:28:21.423Z,6
2023-03-26T01:29:28.214Z,6
2023-03-26T01:30:35.084Z,7
2023-03-26T01:31:41.914Z,5
2023-03-26T01:32:51.396Z,6
2023-03-26T01:34:03.110Z,6
2023-03-26T01:35:14.946Z,5
2023-03-26T01:36:27.514Z,5
2023-03-26T01:37:37.020Z,6
2023-03-26T01:38:53.885Z,5
2023-03-26T01:40:10.790Z,5
2023-03-26T01:41:20.758Z,5
2023-03-26T01:42:30.319Z,5
2023-03-26T01:43:40.343Z,5
2023-03-26T01:44:52.858Z,7
2023-03-26T01:46:04.729Z,6
2023-03-26T01:47:11.523Z,5
2023-03-26T01:48:18.402Z,5
2023-03-26T01:49:25.191Z,6
2023-03-26T01:50:31.985Z,6
2023-03-26T01:51:38.715Z,7
2023-03-26T01:52:45.509Z,6
2023-03-26T01:53:52.441Z,7
2023-03-26T01:54:59.192Z,7
2023-03-26T01:56:06.125Z,6
2023-03-26T01:57:15.601Z,6
2023-03-26T01:58:28.128Z,7
2023-03-26T01:59:40.104Z,6
2023-03-26T02:00:57.012Z,7
2023-03-26T02:02:06.676Z,6
2023-03-26T02:03:16.472Z,6
2023-03-26T02:04:28.282Z,6
2023-03-26T02:05:40.128Z,6
2023-03-26T02:06:49.893Z,10
2023-03-26T02:07:56.791Z,6
2023-03-26T02:09:11.726Z,6
2023-03-26T02:10:18.459Z,6
2023-03-26T02:11:33.610Z,6
2023-03-26T02:12:32.274Z,7
2023-03-26T02:13:39.045Z,6
2023-03-26T02:14:45.885Z,7
2023-03-26T02:15:52.785Z,5
2023-03-26T02:17:05.424Z,5
2023-03-26T02:18:12.276Z,5
2023-03-26T02:19:19.117Z,6
2023-03-26T02:20:25.886Z,8
2023-03-26T02:21:32.636Z,6
2023-03-26T02:22:39.432Z,7
2023-03-26T02:23:46.231Z,9
2023-03-26T02:24:52.990Z,8
2023-03-26T02:25:59.809Z,8
2023-03-26T02:27:09.236Z,9
2023-03-26T02:28:16.051Z,9
2023-03-26T02:29:22.910Z,7
2023-03-26T02:30:29.988Z,7
2023-03-26T02:31:36.645Z,7
2023-03-26T02:32:43.427Z,8
2023-03-26T02:33:50.159Z,6
2023-03-26T02:34:56.908Z,5
2023-03-26T02:36:03.890Z,6
2023-03-26T02:37:10.735Z,6
2023-03-26T02:38:17.611Z,5
2023-03-26T02:39:24.436Z,7
2023-03-26T02:40:31.182Z,6
2023-03-26T02:41:38.046Z,5
2023-03-26T02:42:44.848Z,5
2023-03-26T02:43:51.760Z,5
2023-03-26T02:44:58.569Z,6
2023-03-26T02:46:05.498Z,5
2023-03-26T02:47:12.338Z,6
2023-03-26T02:48:19.153Z,5
2023-03-26T02:49:25.974Z,6
2023-03-26T02:50:32.708Z,5
2023-03-26T02:51:39.468Z,5
2023-03-26T02:52:46.207Z,5
2023-03-26T02:53:53.097Z,6
2023-03-26T02:54:59.860Z,5
2023-03-26T02:56:06.663Z,5
2023-03-26T02:57:13.468Z,6
2023-03-26T02:58:20.285Z,5
2023-03-26T02:59:27.273Z,5
2023-03-26T03:00:34.065Z,5
2023-03-26T03:01:40.948Z,6
2023-03-26T03:02:48.074Z,5
2023-03-26T03:03:54.448Z,5
2023-03-26T03:05:01.216Z,5
2023-03-26T03:06:08.196Z,6
2023-03-26T03:07:15.096Z,6
2023-03-26T03:08:21.913Z,5
2023-03-26T03:09:28.725Z,6
2023-03-26T03:10:35.672Z,6
2023-03-26T03:11:42.343Z,6
2023-03-26T03:12:49.345Z,8
2023-03-26T03:13:56.150Z,9
2023-03-26T03:15:02.944Z,8
2023-03-26T03:16:10.212Z,7
2023-03-26T03:17:17.128Z,8
2023-03-26T03:18:23.907Z,9
2023-03-26T03:19:30.711Z,8
2023-03-26T03:20:37.473Z,7
2023-03-26T03:21:44.399Z,8
2023-03-26T03:22:51.258Z,8
2023-03-26T03:23:59.701Z,9
2023-03-26T03:25:04.830Z,8
2023-03-26T03:26:16.585Z,7
2023-03-26T03:27:23.386Z,7
2023-03-26T03:28:30.194Z,7
2023-03-26T03:29:37.056Z,6
2023-03-26T03:30:43.939Z,8
2023-03-26T03:31:50.685Z,8
2023-03-26T03:32:57.503Z,8
2023-03-26T03:34:04.287Z,8
2023-03-26T03:35:11.073Z,8
2023-03-26T03:36:20.039Z,7
2023-03-26T03:37:28.009Z,5
2023-03-26T03:38:34.783Z,7
2023-03-26T03:39:41.700Z,6
2023-03-26T03:40:48.566Z,8
2023-03-26T03:41:55.351Z,6
2023-03-26T03:43:02.167Z,6
2023-03-26T03:44:09.053Z,4
2023-03-26T03:45:15.855Z,4
2023-03-26T03:46:22.705Z,6
2023-03-26T03:47:29.397Z,6
2023-03-26T03:48:36.316Z,5
2023-03-26T03:49:43.235Z,5
2023-03-26T03:50:50.026Z,6
2023-03-26T03:51:56.777Z,5
2023-03-26T03:53:03.564Z,4
2023-03-26T03:54:10.355Z,5
2023-03-26T03:55:17.166Z,4
2023-03-26T03:56:23.965Z,4
2023-03-26T03:57:30.771Z,5
2023-03-26T03:58:37.537Z,4
2023-03-26T03:59:47.413Z,4
2023-03-26T04:00:51.220Z,5
2023-03-26T04:01:58.084Z,4
2023-03-26T04:03:05.005Z,4
2023-03-26T04:04:11.768Z,4
2023-03-26T04:05:18.513Z,4
2023-03-26T04:06:25.386Z,5
2023-03-26T04:07:32.117Z,4
2023-03-26T04:08:39.061Z,4
2023-03-26T04:09:45.911Z,4
2023-03-26T04:10:52.679Z,5
2023-03-26T04:11:59.474Z,6
2023-03-26T04:13:06.468Z,5
2023-03-26T04:14:13.222Z,5
2023-03-26T04:15:19.986Z,5
2023-03-26T04:16:26.809Z,8
2023-03-26T04:17:33.719Z,7
2023-03-26T04:18:40.514Z,7
2023-03-26T04:19:47.325Z,6
2023-03-26T04:20:54.082Z,7
2023-03-26T04:22:00.890Z,7
2023-03-26T04:23:07.754Z,7
2023-03-26T04:24:17.276Z,6
2023-03-26T04:25:24.116Z,7
2023-03-26T04:26:30.854Z,6
2023-03-26T04:27:37.657Z,7
2023-03-26T04:28:44.553Z,7
2023-03-26T04:29:54.310Z,7
2023-03-26T04:31:01.177Z,8
2023-03-26T04:32:08.235Z,7
2023-03-26T04:33:22.890Z,7
2023-03-26T04:34:29.705Z,7
2023-03-26T04:35:36.575Z,6
2023-03-26T04:36:43.301Z,7
2023-03-26T04:37:50.264Z,7
2023-03-26T04:38:57.086Z,7
2023-03-26T04:40:03.917Z,6
2023-03-26T04:41:16.668Z,7
2023-03-26T04:42:23.456Z,6
2023-03-26T04:43:30.446Z,5
2023-03-26T04:44:40.288Z,5
2023-03-26T04:45:46.917Z,7
2023-03-26T04:46:53.757Z,5
2023-03-26T04:48:00.662Z,5
2023-03-26T04:49:07.404Z,5
2023-03-26T04:50:14.180Z,5
2023-03-26T04:51:21.057Z,5
2023-03-26T04:52:27.906Z,6
2023-03-26T04:53:34.711Z,6
2023-03-26T04:54:41.429Z,5
2023-03-26T04:55:48.197Z,5
2023-03-26T04:56:55.198Z,6
2023-03-26T04:58:04.745Z,6
2023-03-26T04:59:11.525Z,6
2023-03-26T05:00:18.286Z,6
2023-03-26T05:01:25.209Z,5
2023-03-26T05:02:32.064Z,6
2023-03-26T05:03:38.897Z,6
2023-03-26T05:04:46.016Z,7
2023-03-26T05:05:53.608Z,6
2023-03-26T05:07:00.251Z,7
2023-03-26T05:08:07.142Z,6
2023-03-26T05:09:13.980Z,9
2023-03-26T05:10:20.750Z,8
2023-03-26T05:11:27.519Z,7
2023-03-26T05:12:34.387Z,8
2023-03-26T05:13:41.214Z,7
2023-03-26T05:14:48.022Z,10
2023-03-26T05:15:54.851Z,9
2023-03-26T05:17:01.594Z,11
2023-03-26T05:18:08.525Z,8
2023-03-26T05:19:15.230Z,8
2023-03-26T05:20:22.001Z,9
2023-03-26T05:21:28.889Z,8
2023-03-26T05:22:37.888Z,11
2023-03-26T05:23:42.530Z,11
2023-03-26T05:24:49.317Z,9
2023-03-26T05:25:56.058Z,8
2023-03-26T05:27:02.957Z,7
2023-03-26T05:28:09.793Z,6
2023-03-26T05:29:16.580Z,6
2023-03-26T05:30:23.372Z,7
2023-03-26T05:31:30.143Z,9
2023-03-26T05:32:36.887Z,6
2023-03-26T05:33:43.805Z,6
2023-03-26T05:34:50.518Z,5
2023-03-26T05:35:57.332Z,5
2023-03-26T05:37:09.336Z,5
2023-03-26T05:38:16.147Z,5
2023-03-26T05:39:22.951Z,6
2023-03-26T05:40:29.736Z,6
2023-03-26T05:41:36.738Z,5
2023-03-26T05:42:43.504Z,5
2023-03-26T05:43:50.398Z,6
2023-03-26T05:44:57.193Z,5
2023-03-26T05:46:04.041Z,4
2023-03-26T05:47:10.893Z,5
2023-03-26T05:48:17.650Z,5
2023-03-26T05:49:24.480Z,5
2023-03-26T05:50:31.296Z,5
2023-03-26T05:51:38.064Z,6
2023-03-26T05:52:44.860Z,8
2023-03-26T05:53:51.673Z,6
2023-03-26T05:54:58.428Z,6
2023-03-26T05:56:05.214Z,6
2023-03-26T05:57:12.150Z,7
2023-03-26T05:58:18.871Z,6
2023-03-26T05:59:25.841Z,5
2023-03-26T06:00:32.604Z,6
2023-03-26T06:01:39.480Z,5
2023-03-26T06:02:46.319Z,6
2023-03-26T06:03:53.142Z,6
2023-03-26T06:04:59.939Z,5
2023-03-26T06:06:06.841Z,6
2023-03-26T06:07:13.626Z,5
2023-03-26T06:08:20.403Z,4
2023-03-26T06:09:27.205Z,5
2023-03-26T06:10:34.134Z,6
2023-03-26T06:11:40.937Z,8
2023-03-26T06:12:47.825Z,6
2023-03-26T06:13:54.567Z,5
2023-03-26T06:15:01.366Z,6
2023-03-26T06:16:08.560Z,7
2023-03-26T06:17:15.418Z,7
2023-03-26T06:18:22.246Z,7
2023-03-26T06:19:28.996Z,7
2023-03-26T06:20:35.785Z,8
2023-03-26T06:21:42.620Z,10
2023-03-26T06:22:49.477Z,9
2023-03-26T06:23:56.282Z,10
2023-03-26T06:25:03.037Z,12
2023-03-26T06:26:10.020Z,10
2023-03-26T06:27:16.791Z,9
2023-03-26T06:28:23.644Z,8
2023-03-26T06:29:30.462Z,7
2023-03-26T06:30:37.231Z,8
2023-03-26T06:31:44.046Z,7
2023-03-26T06:32:51.612Z,7
2023-03-26T06:34:00.790Z,7
2023-03-26T06:35:07.725Z,6
2023-03-26T06:36:14.685Z,6
2023-03-26T06:37:21.513Z,9
2023-03-26T06:38:28.400Z,9
2023-03-26T06:39:35.197Z,6
2023-03-26T06:40:42.021Z,7
2023-03-26T06:41:48.821Z,6
2023-03-26T06:43:08.456Z,7
2023-03-26T06:44:02.431Z,7
2023-03-26T06:45:09.237Z,10
2023-03-26T06:46:16.234Z,8
2023-03-26T06:47:22.988Z,7
2023-03-26T06:48:29.795Z,8
2023-03-26T06:49:36.707Z,7
2023-03-26T06:50:43.378Z,8
2023-03-26T06:51:50.132Z,6
2023-03-26T06:52:57.345Z,6
2023-03-26T06:54:04.190Z,7
2023-03-26T06:55:10.932Z,7
2023-03-26T06:56:17.729Z,6
2023-03-26T06:57:24.558Z,6
2023-03-26T06:58:31.400Z,7
2023-03-26T06:59:38.210Z,7
2023-03-26T07:00:44.984Z,6
2023-03-26T07:01:51.784Z,6
2023-03-26T07:02:58.678Z,6
2023-03-26T07:04:05.557Z,5
2023-03-26T07:05:12.430Z,6
2023-03-26T07:06:19.277Z,8
2023-03-26T07:07:26.018Z,9
2023-03-26T07:08:32.807Z,6
2023-03-26T07:09:39.621Z,6
2023-03-26T07:10:46.360Z,6
2023-03-26T07:11:53.134Z,7
2023-03-26T07:12:59.896Z,7
2023-03-26T07:14:07.803Z,6
2023-03-26T07:15:14.598Z,7
2023-03-26T07:16:21.437Z,6
2023-03-26T07:17:28.241Z,6
2023-03-26T07:18:35.027Z,6
2023-03-26T07:19:41.827Z,5
2023-03-26T07:20:48.652Z,5
2023-03-26T07:21:56.427Z,7
2023-03-26T07:23:03.347Z,5
2023-03-26T07:24:10.276Z,6
2023-03-26T07:25:17.221Z,6
2023-03-26T07:26:24.126Z,5
2023-03-26T07:27:38.612Z,5
2023-03-26T07:29:03.937Z,6
2023-03-26T07:29:57.318Z,5
2023-03-26T07:31:12.173Z,6
2023-03-26T07:32:22.347Z,6
2023-03-26T07:33:34.873Z,4
2023-03-26T07:34:51.950Z,6
2023-03-26T07:36:03.803Z,5
2023-03-26T07:37:18.263Z,6
2023-03-26T07:38:27.946Z,6
2023-03-26T07:39:39.822Z,6
2023-03-26T07:40:56.843Z,5
2023-03-26T07:42:08.601Z,4
2023-03-26T07:43:23.124Z,5
2023-03-26T07:44:35.891Z,5
2023-03-26T07:45:47.028Z,6
2023-03-26T07:46:53.762Z,6
2023-03-26T07:48:00.608Z,6
2023-03-26T07:49:07.338Z,6
2023-03-26T07:50:14.598Z,7
2023-03-26T07:51:21.181Z,7
2023-03-26T07:52:28.152Z,8
2023-03-26T07:53:35.198Z,6
2023-03-26T07:54:42.096Z,6
2023-03-26T07:55:49.001Z,6
2023-03-26T07:57:01.891Z,6
2023-03-26T07:58:07.687Z,6
2023-03-26T07:59:17.303Z,5
2023-03-26T08:00:31.727Z,7
2023-03-26T08:01:43.641Z,5
2023-03-26T08:03:00.710Z,6
2023-03-26T08:04:23.540Z,5
2023-03-26T08:05:29.396Z,6
2023-03-26T08:06:36.355Z,5
2023-03-26T08:07:43.132Z,5
2023-03-26T08:08:57.757Z,6
2023-03-26T08:10:09.591Z,6
2023-03-26T08:11:24.123Z,5
2023-03-26T08:12:40.963Z,6
2023-03-26T08:13:55.578Z,4
2023-03-26T08:15:10.304Z,6
2023-03-26T08:16:25.290Z,6
2023-03-26T08:17:37.058Z,4
2023-03-26T08:18:48.846Z,5
2023-03-26T08:20:00.655Z,4
2023-03-26T08:21:17.483Z,5
2023-03-26T08:22:26.968Z,4
2023-03-26T08:23:33.662Z,4
2023-03-26T08:24:50.583Z,8
2023-03-26T08:26:05.706Z,6
2023-03-26T08:27:22.540Z,4
2023-03-26T08:28:36.987Z,6
2023-03-26T08:29:48.793Z,5
2023-03-26T08:31:03.637Z,5
2023-03-26T08:32:10.480Z,4
2023-03-26T08:33:17.248Z,5
2023-03-26T08:34:24.253Z,6
2023-03-26T08:35:31.021Z,4
2023-03-26T08:36:37.681Z,5
2023-03-26T08:37:44.503Z,5
2023-03-26T08:38:51.220Z,6
2023-03-26T08:39:57.925Z,6
2023-03-26T08:41:04.689Z,6
2023-03-26T08:42:11.531Z,5
2023-03-26T08:43:26.202Z,5
2023-03-26T08:44:43.101Z,6
2023-03-26T08:45:54.922Z,5
2023-03-26T08:47:07.623Z,6
2023-03-26T08:48:22.432Z,5
2023-03-26T08:49:39.289Z,5
2023-03-26T08:50:56.324Z,5
2023-03-26T08:52:08.833Z,6
2023-03-26T08:53:25.779Z,6
2023-03-26T08:54:32.599Z,6
2023-03-26T08:55:44.433Z,5
2023-03-26T08:56:56.350Z,6
2023-03-26T08:58:05.697Z,6
2023-03-26T08:59:17.510Z,4
2023-03-26T09:00:32.303Z,4
2023-03-26T09:01:44.255Z,5
2023-03-26T09:02:56.116Z,7
2023-03-26T09:04:13.114Z,5
2023-03-26T09:05:25.675Z,5
2023-03-26T09:06:40.476Z,5
2023-03-26T09:07:52.306Z,4
2023-03-26T09:08:59.089Z,5
2023-03-26T09:10:10.904Z,5
2023-03-26T09:11:22.730Z,5
2023-03-26T09:12:39.669Z,6
2023-03-26T09:13:54.044Z,6
2023-03-26T09:15:05.842Z,5
2023-03-26T09:16:22.816Z,6
2023-03-26T09:17:32.707Z,4
2023-03-26T09:18:44.558Z,5
2023-03-26T09:20:01.650Z,5
2023-03-26T09:21:13.485Z,5
2023-03-26T09:22:30.335Z,6
2023-03-26T09:23:42.254Z,5
2023-03-26T09:24:52.000Z,4
2023-03-26T09:26:06.640Z,8
2023-03-26T09:27:16.453Z,5
2023-03-26T09:28:33.324Z,5
2023-03-26T09:29:50.263Z,5
2023-03-26T09:31:07.201Z,5
2023-03-26T09:32:17.005Z,5
2023-03-26T09:33:26.459Z,4
2023-03-26T09:34:43.344Z,5
2023-03-26T09:36:00.317Z,6
2023-03-26T09:37:12.150Z,5
2023-03-26T09:38:24.051Z,6
2023-03-26T09:39:38.471Z,5
2023-03-26T09:40:48.142Z,7
2023-03-26T09:41:59.908Z,7
2023-03-26T09:43:12.773Z,5
2023-03-26T09:44:29.662Z,6
2023-03-26T09:45:44.318Z,6
2023-03-26T09:46:54.154Z,6
2023-03-26T09:48:11.085Z,5
2023-03-26T09:49:25.749Z,5
2023-03-26T09:50:38.438Z,6
2023-03-26T09:51:55.383Z,6
2023-03-26T09:53:12.338Z,6
2023-03-26T09:54:29.238Z,6
2023-03-26T09:55:41.644Z,5
2023-03-26T09:56:51.547Z,6
2023-03-26T09:58:08.433Z,5
2023-03-26T09:59:25.444Z,6
2023-03-26T10:00:35.113Z,6
2023-03-26T10:01:47.038Z,6
2023-03-26T10:02:59.028Z,6
2023-03-26T10:04:13.898Z,6
2023-03-26T10:05:25.865Z,6
2023-03-26T10:06:37.805Z,5
2023-03-26T10:07:44.696Z,5
2023-03-26T10:08:59.231Z,4
2023-03-26T10:10:16.203Z,6
2023-03-26T10:11:28.219Z,5
2023-03-26T10:12:45.115Z,5
2023-03-26T10:13:54.524Z,6
2023-03-26T10:15:06.424Z,6
2023-03-26T10:16:16.060Z,6
2023-03-26T10:17:30.628Z,6
2023-03-26T10:18:47.481Z,5
2023-03-26T10:19:59.460Z,4
2023-03-26T10:21:11.417Z,4
2023-03-26T10:22:23.208Z,5
2023-03-26T10:23:32.754Z,5
2023-03-26T10:24:49.645Z,5
2023-03-26T10:26:04.294Z,6
2023-03-26T10:27:13.848Z,4
2023-03-26T10:28:23.536Z,4
2023-03-26T10:29:36.059Z,5
2023-03-26T10:30:53.219Z,6
2023-03-26T10:32:04.896Z,6
2023-03-26T10:33:16.837Z,7
2023-03-26T10:34:31.203Z,6
2023-03-26T10:35:43.077Z,7
2023-03-26T10:36:54.979Z,5
2023-03-26T10:38:06.856Z,7
2023-03-26T10:39:35.894Z,6
2023-03-26T10:40:33.428Z,4
2023-03-26T10:41:45.464Z,5
2023-03-26T10:42:57.386Z,5
2023-03-26T10:44:14.360Z,5
2023-03-26T10:45:31.288Z,4
2023-03-26T10:46:46.061Z,4
2023-03-26T10:48:03.284Z,3
2023-03-26T10:49:20.154Z,4
2023-03-26T10:50:34.705Z,4
2023-03-26T10:51:46.528Z,4
2023-03-26T10:52:55.972Z,13
2023-03-26T10:54:10.837Z,4
2023-03-26T10:55:17.739Z,5
2023-03-26T10:56:34.676Z,6
2023-03-26T10:57:44.621Z,5
2023-03-26T10:58:59.072Z,4
2023-03-26T11:00:08.938Z,5
2023-03-26T11:01:18.419Z,5
2023-03-26T11:02:29.230Z,5
2023-03-26T11:03:32.000Z,4
2023-03-26T11:04:43.912Z,4
2023-03-26T11:05:53.635Z,5
2023-03-26T11:07:05.410Z,4
2023-03-26T11:08:31.803Z,3
2023-03-26T11:09:36.875Z,4
2023-03-26T11:10:53.863Z,5
2023-03-26T11:12:25.989Z,3
2023-03-26T11:13:20.013Z,3
2023-03-26T11:14:36.933Z,4
2023-03-26T11:15:53.909Z,4
2023-03-26T11:17:00.686Z,6
2023-03-26T11:18:07.521Z,3
2023-03-26T11:19:19.422Z,4
2023-03-26T11:20:31.239Z,5
2023-03-26T11:21:45.590Z,5
2023-03-26T11:22:57.402Z,4
2023-03-26T11:24:14.470Z,4
2023-03-26T11:25:31.460Z,4
2023-03-26T11:26:48.343Z,4
2023-03-26T11:28:05.286Z,8
2023-03-26T11:29:32.007Z,9
2023-03-26T11:30:31.892Z,8
2023-03-26T11:31:48.914Z,14
2023-03-26T11:32:58.565Z,7
2023-03-26T11:34:08.406Z,6
2023-03-26T11:35:40.093Z,5
2023-03-26T11:36:32.791Z,5
2023-03-26T11:37:39.513Z,8
2023-03-26T11:38:46.400Z,8
2023-03-26T11:39:54.471Z,7
2023-03-26T11:40:59.979Z,8
2023-03-26T11:42:07.005Z,7
2023-03-26T11:43:16.653Z,6
2023-03-26T11:44:23.445Z,5
2023-03-26T11:45:30.276Z,6
2023-03-26T11:46:37.104Z,5
2023-03-26T11:47:43.979Z,4
2023-03-26T11:48:53.624Z,4
2023-03-26T11:50:00.391Z,6
2023-03-26T11:51:07.281Z,5
2023-03-26T11:52:14.155Z,8
2023-03-26T11:53:20.998Z,5
2023-03-26T11:54:27.867Z,5
2023-03-26T11:55:34.656Z,5
2023-03-26T11:56:41.538Z,7
2023-03-26T11:57:50.913Z,5
2023-03-26T11:58:57.814Z,6
2023-03-26T12:00:12.401Z,5
2023-03-26T12:01:19.192Z,6
2023-03-26T12:02:29.097Z,5
2023-03-26T12:03:40.780Z,6
2023-03-26T12:04:47.544Z,5
2023-03-26T12:05:54.406Z,6
2023-03-26T12:07:01.225Z,6
2023-03-26T12:08:18.300Z,5
2023-03-26T12:09:25.036Z,5
2023-03-26T12:10:31.878Z,5
2023-03-26T12:11:41.481Z,5
2023-03-26T12:12:48.266Z,6
2023-03-26T12:13:55.011Z,6
2023-03-26T12:15:01.743Z,7
2023-03-26T12:16:08.815Z,6
2023-03-26T12:17:15.704Z,6
2023-03-26T12:18:30.243Z,6
2023-03-26T12:19:37.030Z,5
2023-03-26T12:20:43.882Z,6
2023-03-26T12:21:50.666Z,5
2023-03-26T12:22:57.495Z,7
2023-03-26T12:24:04.327Z,9
2023-03-26T12:25:11.142Z,10
2023-03-26T12:26:24.061Z,12
2023-03-26T12:27:41.014Z,8
2023-03-26T12:28:50.588Z,8
2023-03-26T12:29:57.409Z,6
2023-03-26T12:31:11.928Z,5
2023-03-26T12:32:18.888Z,6
2023-03-26T12:33:25.685Z,6
2023-03-26T12:34:35.353Z,5
2023-03-26T12:35:41.983Z,5
2023-03-26T12:36:48.710Z,4
2023-03-26T12:37:55.522Z,5
2023-03-26T12:39:16.060Z,5
2023-03-26T12:40:26.975Z,6
2023-03-26T12:42:26.218Z,6
2023-03-26T12:44:45.568Z,5
2023-03-26T12:44:51.784Z,6
2023-03-26T12:45:02.823Z,6
2023-03-26T12:47:55.842Z,5
2023-03-26T12:47:55.911Z,5
2023-03-26T12:48:31.444Z,5
2023-03-26T12:49:38.234Z,4
2023-03-26T12:50:45.058Z,5
2023-03-26T12:51:59.636Z,4
2023-03-26T12:53:11.641Z,5
2023-03-26T12:54:21.481Z,5
2023-03-26T12:55:38.441Z,7
2023-03-26T12:56:45.268Z,6
2023-03-26T12:57:59.762Z,6
2023-03-26T12:59:09.746Z,5
2023-03-26T13:00:24.335Z,5
2023-03-26T13:01:41.266Z,6
2023-03-26T13:02:48.110Z,7
2023-03-26T13:03:59.852Z,6
2023-03-26T13:05:14.793Z,7
2023-03-26T13:06:31.725Z,5
2023-03-26T13:07:43.582Z,7
2023-03-26T13:09:00.554Z,5
2023-03-26T13:10:12.365Z,4
2023-03-26T13:11:24.712Z,4
2023-03-26T13:12:37.272Z,5
2023-03-26T13:13:49.147Z,4
2023-03-26T13:15:00.972Z,4
2023-03-26T13:16:10.453Z,4
2023-03-26T13:17:27.411Z,6
2023-03-26T13:18:36.940Z,5
2023-03-26T13:19:51.663Z,6
2023-03-26T13:21:01.323Z,5
2023-03-26T13:22:10.910Z,5
2023-03-26T13:23:28.903Z,6
2023-03-26T13:24:45.810Z,5
2023-03-26T13:25:55.237Z,5
2023-03-26T13:27:12.255Z,4
2023-03-26T13:28:29.124Z,5
2023-03-26T13:29:43.733Z,6
2023-03-26T13:30:58.246Z,5
2023-03-26T13:32:10.036Z,6
2023-03-26T13:33:21.853Z,5
2023-03-26T13:34:33.730Z,5
2023-03-26T13:35:43.515Z,4
2023-03-26T13:36:52.877Z,6
2023-03-26T13:38:09.785Z,7
2023-03-26T13:39:16.746Z,4
2023-03-26T13:40:26.291Z,5
2023-03-26T13:41:36.228Z,5
2023-03-26T13:42:53.135Z,5
2023-03-26T13:44:10.046Z,6
2023-03-26T13:45:19.826Z,4
2023-03-26T13:46:34.450Z,4
2023-03-26T13:47:41.256Z,4
2023-03-26T13:48:48.027Z,4
2023-03-26T13:49:59.854Z,7
2023-03-26T13:51:09.323Z,4
2023-03-26T13:52:21.203Z,6
2023-03-26T13:53:28.010Z,5
2023-03-26T13:54:37.991Z,5
2023-03-26T13:55:47.490Z,5
2023-03-26T13:56:57.356Z,5
2023-03-26T13:58:11.930Z,5
2023-03-26T13:59:26.703Z,7
2023-03-26T14:00:38.648Z,5
2023-03-26T14:01:45.539Z,5
2023-03-26T14:02:57.436Z,5
2023-03-26T14:04:06.833Z,5
2023-03-26T14:05:18.617Z,4
2023-03-26T14:06:25.457Z,5
2023-03-26T14:07:32.348Z,6
2023-03-26T14:08:44.218Z,5
2023-03-26T14:09:51.087Z,7
2023-03-26T14:11:03.661Z,6
2023-03-26T14:12:20.902Z,7
2023-03-26T14:13:27.342Z,8
2023-03-26T14:14:36.666Z,8
2023-03-26T14:15:43.471Z,7
2023-03-26T14:16:50.322Z,7
2023-03-26T14:17:59.934Z,7
2023-03-26T14:19:14.720Z,7
2023-03-26T14:20:26.619Z,6
2023-03-26T14:21:43.586Z,6
2023-03-26T14:22:56.273Z,5
2023-03-26T14:24:06.012Z,5
2023-03-26T14:25:18.556Z,7
2023-03-26T14:26:28.439Z,6
2023-03-26T14:27:40.302Z,6
2023-03-26T14:28:47.113Z,6
2023-03-26T14:29:57.449Z,6
2023-03-26T14:31:13.470Z,5
2023-03-26T14:32:27.938Z,6
2023-03-26T14:33:39.781Z,6
2023-03-26T14:34:51.618Z,6
2023-03-26T14:36:01.368Z,5
2023-03-26T14:37:17.296Z,6
2023-03-26T14:38:32.780Z,6
2023-03-26T14:39:49.793Z,6
2023-03-26T14:41:01.571Z,7
2023-03-26T14:42:18.631Z,6
2023-03-26T14:43:33.244Z,5
2023-03-26T14:44:48.771Z,7
2023-03-26T14:46:04.843Z,7
2023-03-26T14:47:21.900Z,8
2023-03-26T14:48:28.559Z,7
2023-03-26T14:49:45.545Z,5
2023-03-26T14:51:00.417Z,6
2023-03-26T14:52:12.232Z,5
2023-03-26T14:53:19.003Z,4
2023-03-26T14:54:30.823Z,5
2023-03-26T14:55:37.618Z,5
2023-03-26T14:56:54.829Z,4
2023-03-26T14:58:06.663Z,4
2023-03-26T14:59:21.122Z,5
2023-03-26T15:00:38.232Z,5
2023-03-26T15:01:50.148Z,6
2023-03-26T15:03:02.100Z,5
2023-03-26T15:04:19.055Z,4
2023-03-26T15:05:30.992Z,5
2023-03-26T15:06:47.872Z,7
2023-03-26T15:08:04.784Z,5
2023-03-26T15:09:19.222Z,5
2023-03-26T15:10:34.151Z,7
2023-03-26T15:11:51.105Z,7
2023-03-26T15:13:08.032Z,5
2023-03-26T15:14:24.986Z,6
2023-03-26T15:15:36.869Z,6
2023-03-26T15:16:53.924Z,6
2023-03-26T15:18:06.199Z,5
2023-03-26T15:19:18.084Z,5
2023-03-26T15:20:32.826Z,6
2023-03-26T15:21:47.410Z,7
2023-03-26T15:22:59.265Z,9
2023-03-26T15:24:11.150Z,7
2023-03-26T15:25:23.048Z,6
2023-03-26T15:26:39.917Z,6
2023-03-26T15:27:49.481Z,7
2023-03-26T15:29:01.295Z,7
2023-03-26T15:30:13.237Z,6
2023-03-26T15:31:30.216Z,8
2023-03-26T15:32:44.719Z,8
2023-03-26T15:33:57.362Z,8
2023-03-26T15:35:12.550Z,8
2023-03-26T15:36:23.035Z,8
2023-03-26T15:37:33.078Z,8
2023-03-26T15:38:47.707Z,7
2023-03-26T15:40:04.607Z,6
2023-03-26T15:41:21.742Z,7
2023-03-26T15:42:41.164Z,6
2023-03-26T15:44:22.276Z,7
2023-03-26T15:45:15.091Z,7
2023-03-26T15:46:37.190Z,7
2023-03-26T15:47:49.059Z,8
2023-03-26T15:49:00.926Z,4
2023-03-26T15:50:12.790Z,7
2023-03-26T15:51:19.670Z,5
2023-03-26T15:52:36.569Z,5
2023-03-26T15:53:53.566Z,6
2023-03-26T15:55:03.171Z,6
2023-03-26T15:56:12.826Z,5
2023-03-26T15:57:19.732Z,6
2023-03-26T15:58:36.590Z,6
2023-03-26T15:59:49.233Z,5
2023-03-26T16:01:06.262Z,5
2023-03-26T16:02:23.111Z,7
2023-03-26T16:03:29.884Z,5
2023-03-26T16:04:50.215Z,6
2023-03-26T16:05:57.303Z,6
2023-03-26T16:07:09.169Z,5
2023-03-26T16:08:24.039Z,6
2023-03-26T16:09:40.918Z,6
2023-03-26T16:10:53.586Z,6
2023-03-26T16:12:00.367Z,5
2023-03-26T16:13:07.280Z,7
2023-03-26T16:14:23.457Z,7
2023-03-26T16:15:39.061Z,6
2023-03-26T16:16:46.005Z,10
2023-03-26T16:17:58.048Z,7
2023-03-26T16:19:12.730Z,6
2023-03-26T16:20:22.037Z,7
2023-03-26T16:21:36.830Z,10
2023-03-26T16:22:46.531Z,8
2023-03-26T16:23:57.271Z,7
2023-03-26T16:25:27.034Z,10
2023-03-26T16:26:23.924Z,8
2023-03-26T16:27:38.777Z,8
2023-03-26T16:28:45.600Z,7
2023-03-26T16:29:54.971Z,8
2023-03-26T16:31:04.784Z,8
2023-03-26T16:32:11.610Z,9
2023-03-26T16:33:18.429Z,10
2023-03-26T16:34:25.316Z,10
2023-03-26T16:35:32.385Z,10
2023-03-26T16:36:41.804Z,9
2023-03-26T16:37:48.638Z,11
2023-03-26T16:39:05.581Z,10
2023-03-26T16:40:20.548Z,9
2023-03-26T16:41:30.451Z,9
2023-03-26T16:42:42.352Z,10
2023-03-26T16:43:59.486Z,9
2023-03-26T16:45:13.745Z,9
2023-03-26T16:46:25.736Z,10
2023-03-26T16:47:40.229Z,12
2023-03-26T16:48:54.936Z,14
2023-03-26T16:50:07.976Z,11
2023-03-26T16:51:18.838Z,12
2023-03-26T16:52:25.636Z,12
2023-03-26T16:53:42.582Z,12
2023-03-26T16:54:57.127Z,10
2023-03-26T16:56:14.079Z,9
2023-03-26T16:57:23.877Z,11
2023-03-26T16:58:30.790Z,24
2023-03-26T16:59:42.704Z,16
2023-03-26T17:00:59.680Z,12
2023-03-26T17:02:09.977Z,13
2023-03-26T17:03:19.611Z,11
2023-03-26T17:04:34.210Z,12
2023-03-26T17:05:41.075Z,9
2023-03-26T17:06:52.959Z,9
2023-03-26T17:08:07.663Z,7
2023-03-26T17:09:19.524Z,10
2023-03-26T17:10:36.441Z,10
2023-03-26T17:11:53.402Z,6